Time;durP1;ratioP1;P1;durP2;ratioP2;P2;SDS_P1;SDS_P2;PMS_P1;PMS_P2;Temp;Humidity;BMP_temperature;BMP_pressure;BME280_temperature;BME280_humidity;BME280_pressure;Samples;Min_cycle;Max_cycle;Signal;HPM_P1;HPM_P2
2021/06/09 00:01:12;;;;;;;26.05;14.45;;;;;;;;;;5028164;28;20370;-64
2021/06/09 00:03:37;;;;;;;22.42;15.60;;;;;;;;;;5028185;28;20070;-64
2021/06/09 00:06:02;;;;;;;23.55;14.40;;;;;;;;;;5028281;28;20064;-67
2021/06/09 00:08:27;;;;;;;25.20;15.25;;;;;;;;;;5027071;28;20021;-65
2021/06/09 00:10:56;;;;;;;26.35;13.80;;;;;;;;;;5027929;28;20033;-67
2021/06/09 00:13:50;;;;;;;;;;;;;;;;;;;;;
2021/06/09 00:16:31;;;;;;;28.45;13.98;;;;;;;;;;5042356;28;20029;-92
2021/06/09 00:19:25;;;;;;;20.70;13.85;;;;;;;;;;5034305;28;20037;-92
2021/06/09 00:22:27;;;;;;;22.98;14.98;;;;;;;;;;5025920;28;20024;-92
2021/06/09 00:24:53;;;;;;;20.73;13.77;;;;;;;;;;4969642;28;20559;-94
2021/06/09 00:28:23;;;;;;;26.05;15.35;;;;;;;;;;5016325;28;20498;-92
2021/06/09 00:30:32;;;;;;;23.92;15.45;;;;;;;;;;5034827;28;20124;-92
2021/06/09 00:32:58;;;;;;;24.83;16.92;;;;;;;;;;5034122;28;20028;-93
2021/06/09 00:35:44;;;;;;;26.60;15.25;;;;;;;;;;5034091;28;20029;-91
2021/06/09 00:38:13;;;;;;;29.00;14.68;;;;;;;;;;5033006;28;20179;-91
2021/06/09 00:40:38;;;;;;;30.55;16.48;;;;;;;;;;5031876;28;20021;-93
2021/06/09 00:43:10;;;;;;;25.55;15.90;;;;;;;;;;5030679;28;20036;-90
2021/06/09 00:45:37;;;;;;;25.42;15.73;;;;;;;;;;5032645;28;20025;-91
2021/06/09 00:48:03;;;;;;;26.40;15.80;;;;;;;;;;5032860;28;20100;-91
2021/06/09 00:54:31;;;;;;;26.02;16.45;;;;;;;;;;5011345;28;20064;-91
2021/06/09 00:59:32;;;;;;;30.48;16.17;;;;;;;;;;5050117;28;20563;-90
2021/06/09 01:02:14;;;;;;;;;;;;;;;;;;;;;
2021/06/09 01:04:47;;;;;;;26.20;15.90;;;;;;;;;;5046962;28;20029;-92
2021/06/09 01:07:21;;;;;;;24.98;14.73;;;;;;;;;;5032536;28;20056;-90
2021/06/09 01:09:50;;;;;;;25.65;14.18;;;;;;;;;;5027234;28;20475;-92
2021/06/09 01:13:13;;;;;;;;;;;;;;;;;;;;;
2021/06/09 01:15:42;;;;;;;20.88;14.82;;;;;;;;;;5029351;28;20032;-92
2021/06/09 01:18:14;;;;;;;23.38;15.77;;;;;;;;;;5033073;28;20063;-90
2021/06/09 01:20:40;;;;;;;22.25;16.08;;;;;;;;;;5042702;28;20024;-90
2021/06/09 01:23:15;;;;;;;27.10;15.98;;;;;;;;;;5029715;28;20083;-90
2021/06/09 01:26:10;;;;;;;24.98;16.08;;;;;;;;;;5032325;28;20021;-91
2021/06/09 01:29:02;;;;;;;28.95;17.75;;;;;;;;;;5013786;28;20037;-90
2021/06/09 01:32:06;;;;;;;29.10;16.58;;;;;;;;;;5040553;23;20041;-92
2021/06/09 01:34:45;;;;;;;26.38;18.30;;;;;;;;;;4958308;28;20043;-91
2021/06/09 01:37:21;;;;;;;30.15;19.40;;;;;;;;;;4935060;29;20126;-91
2021/06/09 01:39:47;;;;;;;33.33;21.30;;;;;;;;;;4978828;28;20112;-93
2021/06/09 01:42:13;;;;;;;30.27;19.13;;;;;;;;;;5009454;28;20022;-91
2021/06/09 01:44:40;;;;;;;30.17;18.95;;;;;;;;;;5014406;28;20028;-91
2021/06/09 01:53:36;;;;;;;33.40;18.95;;;;;;;;;;4993969;28;20013;-92
2021/06/09 01:56:38;;;;;;;31.67;19.73;;;;;;;;;;4968096;28;20035;-94
2021/06/09 01:59:30;;;;;;;29.00;20.13;;;;;;;;;;4990914;28;20032;-92
2021/06/09 02:02:11;;;;;;;;;;;;;;;;;;;;;
2021/06/09 02:04:41;;;;;;;30.52;20.30;;;;;;;;;;5032449;28;20105;-90
2021/06/09 02:07:22;;;;;;;28.67;18.98;;;;;;;;;;5014436;28;20047;-91
2021/06/09 02:10:13;;;;;;;33.95;20.75;;;;;;;;;;5015654;28;20029;-91
2021/06/09 02:15:56;;;;;;;35.20;22.08;;;;;;;;;;5017008;28;20402;-92
2021/06/09 02:18:47;;;;;;;;;;;;;;;;;;;;;
2021/06/09 02:21:28;;;;;;;36.72;22.60;;;;;;;;;;5034234;28;20101;-92
2021/06/09 02:23:55;;;;;;;30.90;21.42;;;;;;;;;;5011380;28;20053;-92
2021/06/09 02:32:17;;;;;;;31.17;20.65;;;;;;;;;;5062878;23;20053;-66
2021/06/09 02:34:43;;;;;;;29.05;20.95;;;;;;;;;;5030525;28;20029;-66
2021/06/09 02:37:08;;;;;;;30.80;20.88;;;;;;;;;;5029813;28;20018;-66
2021/06/09 02:39:33;;;;;;;34.90;21.25;;;;;;;;;;5030151;28;20027;-66
2021/06/09 02:41:58;;;;;;;29.27;21.00;;;;;;;;;;5013299;28;20014;-66
2021/06/09 02:44:24;;;;;;;35.78;22.45;;;;;;;;;;5010133;28;20269;-66
2021/06/09 02:46:54;;;;;;;36.50;22.10;;;;;;;;;;5051047;23;20495;-67
2021/06/09 02:49:22;;;;;;;32.90;22.92;;;;;;;;;;5023063;28;20268;-65
2021/06/09 02:51:48;;;;;;;34.30;22.15;;;;;;;;;;5030398;28;20029;-67
2021/06/09 02:54:16;;;;;;;35.85;22.60;;;;;;;;;;5029480;28;20389;-64
2021/06/09 02:56:48;;;;;;;31.88;22.58;;;;;;;;;;5025167;28;20043;-67
2021/06/09 02:59:16;;;;;;;38.30;21.88;;;;;;;;;;5029195;28;20045;-64
2021/06/09 03:01:47;;;;;;;39.78;22.23;;;;;;;;;;5029777;28;20060;-65
2021/06/09 03:04:20;;;;;;;36.00;22.13;;;;;;;;;;5030069;28;20018;-67
2021/06/09 03:06:55;;;;;;;37.35;23.23;;;;;;;;;;5029508;28;20025;-67
2021/06/09 03:09:40;;;;;;;41.63;24.35;;;;;;;;;;5029769;28;20020;-67
2021/06/09 03:12:28;;;;;;;33.30;23.02;;;;;;;;;;5028235;28;20423;-66
2021/06/09 03:15:12;;;;;;;37.85;22.88;;;;;;;;;;5016120;28;20021;-66
2021/06/09 03:17:40;;;;;;;34.78;22.98;;;;;;;;;;5029807;28;20013;-65
2021/06/09 03:20:05;;;;;;;34.60;22.25;;;;;;;;;;5029446;28;20025;-67
2021/06/09 03:22:46;;;;;;;33.10;22.35;;;;;;;;;;5032138;28;20127;-67
2021/06/09 03:25:14;;;;;;;35.60;22.77;;;;;;;;;;5033268;28;20056;-66
2021/06/09 03:27:42;;;;;;;38.47;23.73;;;;;;;;;;5033533;28;20044;-67
2021/06/09 03:30:09;;;;;;;32.97;21.45;;;;;;;;;;5030037;28;20108;-67
2021/06/09 03:32:36;;;;;;;36.97;21.58;;;;;;;;;;5032486;28;20436;-66
2021/06/09 03:35:08;;;;;;;35.67;22.27;;;;;;;;;;5033694;28;20025;-67
2021/06/09 03:37:36;;;;;;;35.08;23.02;;;;;;;;;;5032066;28;20021;-66
2021/06/09 03:40:04;;;;;;;42.53;23.63;;;;;;;;;;5033400;28;20074;-67
2021/06/09 03:42:30;;;;;;;38.25;22.15;;;;;;;;;;5022449;28;20047;-64
2021/06/09 03:44:56;;;;;;;35.92;23.13;;;;;;;;;;5035338;28;20112;-67
2021/06/09 03:47:21;;;;;;;32.47;22.25;;;;;;;;;;5047605;28;20136;-65
2021/06/09 03:49:47;;;;;;;39.50;23.80;;;;;;;;;;5053473;28;20104;-67
2021/06/09 03:52:13;;;;;;;38.17;23.48;;;;;;;;;;5052594;28;20067;-64
2021/06/09 03:54:40;;;;;;;35.90;24.17;;;;;;;;;;5052669;28;20364;-64
2021/06/09 03:57:06;;;;;;;36.22;24.10;;;;;;;;;;5052722;28;20021;-68
2021/06/09 03:59:31;;;;;;;47.72;26.35;;;;;;;;;;5052873;28;20028;-64
2021/06/09 04:01:58;;;;;;;41.05;25.98;;;;;;;;;;5051941;28;20021;-67
2021/06/09 04:04:23;;;;;;;40.35;25.73;;;;;;;;;;5052903;28;20024;-67
2021/06/09 04:06:50;;;;;;;39.30;25.20;;;;;;;;;;5052225;28;20028;-67
2021/06/09 04:09:18;;;;;;;44.55;26.63;;;;;;;;;;5052040;28;20033;-67
2021/06/09 04:11:44;;;;;;;38.47;25.00;;;;;;;;;;5044688;28;20101;-66
2021/06/09 04:14:10;;;;;;;39.20;25.75;;;;;;;;;;5052248;28;20101;-66
2021/06/09 04:16:36;;;;;;;44.33;28.80;;;;;;;;;;5052548;28;20032;-67
2021/06/09 04:19:02;;;;;;;43.22;26.17;;;;;;;;;;5048420;28;20021;-66
2021/06/09 04:21:27;;;;;;;46.03;26.75;;;;;;;;;;5051744;28;20035;-67
2021/06/09 04:23:53;;;;;;;40.85;27.67;;;;;;;;;;5052104;28;20139;-65
2021/06/09 04:26:19;;;;;;;41.60;26.73;;;;;;;;;;5051283;28;20067;-64
2021/06/09 04:28:45;;;;;;;40.72;25.30;;;;;;;;;;5051915;28;20025;-67
2021/06/09 04:31:12;;;;;;;37.72;23.98;;;;;;;;;;5052436;28;20052;-67
2021/06/09 04:33:37;;;;;;;39.47;23.17;;;;;;;;;;5052749;28;20438;-65
2021/06/09 04:36:03;;;;;;;36.45;25.02;;;;;;;;;;5049306;28;20103;-66
2021/06/09 04:38:28;;;;;;;38.08;23.42;;;;;;;;;;5048362;28;20113;-64
2021/06/09 04:40:53;;;;;;;37.72;23.55;;;;;;;;;;5052538;28;20024;-64
2021/06/09 04:43:22;;;;;;;34.45;22.92;;;;;;;;;;5044107;28;20090;-64
2021/06/09 04:45:48;;;;;;;38.08;24.10;;;;;;;;;;5023812;28;20553;-65
2021/06/09 04:48:14;;;;;;;35.47;23.90;;;;;;;;;;5049877;28;20103;-64
2021/06/09 04:50:39;;;;;;;40.78;24.17;;;;;;;;;;5049462;28;20296;-66
2021/06/09 04:53:11;;;;;;;37.63;24.35;;;;;;;;;;5049695;28;20136;-65
2021/06/09 04:55:37;;;;;;;42.42;25.70;;;;;;;;;;5050163;28;20413;-65
2021/06/09 04:58:02;;;;;;;43.55;26.55;;;;;;;;;;5047782;28;20092;-64
2021/06/09 05:00:27;;;;;;;43.50;27.80;;;;;;;;;;5043731;28;20128;-66
2021/06/09 05:02:52;;;;;;;42.50;26.77;;;;;;;;;;5049961;28;20268;-66
2021/06/09 05:05:18;;;;;;;41.40;26.33;;;;;;;;;;5049408;28;20359;-65
2021/06/09 05:07:43;;;;;;;46.67;27.33;;;;;;;;;;5047886;28;20266;-65
2021/06/09 05:10:08;;;;;;;47.08;27.70;;;;;;;;;;5040286;28;20677;-67
2021/06/09 05:12:35;;;;;;;46.40;26.85;;;;;;;;;;5043363;28;20487;-65
2021/06/09 05:15:01;;;;;;;41.25;27.70;;;;;;;;;;5043466;28;20051;-67
2021/06/09 05:17:29;;;;;;;37.53;25.52;;;;;;;;;;5048319;28;20052;-64
2021/06/09 05:19:56;;;;;;;42.05;26.45;;;;;;;;;;5049468;28;20032;-66
2021/06/09 05:22:41;;;;;;;38.55;25.60;;;;;;;;;;5049463;28;20402;-65
2021/06/09 05:25:07;;;;;;;41.65;25.55;;;;;;;;;;5045159;28;20068;-65
2021/06/09 05:27:32;;;;;;;42.17;27.27;;;;;;;;;;5044274;28;20060;-64
2021/06/09 05:29:58;;;;;;;41.63;26.92;;;;;;;;;;5048535;28;20497;-67
2021/06/09 05:32:25;;;;;;;41.40;28.40;;;;;;;;;;5049785;28;20036;-67
2021/06/09 05:34:51;;;;;;;46.42;26.25;;;;;;;;;;5049299;28;20024;-65
2021/06/09 05:37:16;;;;;;;39.00;23.40;;;;;;;;;;5048971;28;20048;-67
2021/06/09 05:39:42;;;;;;;47.85;27.30;;;;;;;;;;5049203;28;20059;-67
2021/06/09 05:42:09;;;;;;;39.05;25.27;;;;;;;;;;5043127;28;20078;-67
2021/06/09 05:44:34;;;;;;;43.55;27.92;;;;;;;;;;5040566;28;20025;-64
2021/06/09 05:47:01;;;;;;;41.90;28.35;;;;;;;;;;5046120;28;20399;-66
2021/06/09 05:49:26;;;;;;;45.47;28.35;;;;;;;;;;5050526;28;20111;-65
2021/06/09 05:51:52;;;;;;;44.92;30.73;;;;;;;;;;5050651;28;20551;-65
2021/06/09 05:54:17;;;;;;;49.58;32.33;;;;;;;;;;5046178;28;20027;-67
2021/06/09 05:56:43;;;;;;;51.47;28.63;;;;;;;;;;5043257;28;20101;-66
2021/06/09 05:59:09;;;;;;;48.65;29.67;;;;;;;;;;5040234;28;20429;-65
2021/06/09 06:01:34;;;;;;;52.38;33.72;;;;;;;;;;5049798;28;20021;-65
2021/06/09 06:04:00;;;;;;;52.10;33.47;;;;;;;;;;5050154;28;20131;-66
2021/06/09 06:06:25;;;;;;;49.17;32.60;;;;;;;;;;5047822;28;20264;-65
2021/06/09 06:08:50;;;;;;;53.75;33.92;;;;;;;;;;5045079;28;20104;-65
2021/06/09 06:11:16;;;;;;;52.80;34.93;;;;;;;;;;5051041;28;20067;-67
2021/06/09 06:13:42;;;;;;;57.35;36.40;;;;;;;;;;5050051;28;20579;-64
2021/06/09 06:16:08;;;;;;;51.63;34.03;;;;;;;;;;5050717;28;20021;-64
2021/06/09 06:18:34;;;;;;;53.28;36.65;;;;;;;;;;5032929;28;20494;-64
2021/06/09 06:21:00;;;;;;;57.58;34.92;;;;;;;;;;5050647;28;20024;-64
2021/06/09 06:23:26;;;;;;;55.88;37.17;;;;;;;;;;5051076;28;20483;-64
2021/06/09 06:25:52;;;;;;;57.67;36.42;;;;;;;;;;5050652;28;20028;-65
2021/06/09 06:28:18;;;;;;;57.75;37.22;;;;;;;;;;5050696;28;20025;-65
2021/06/09 06:30:43;;;;;;;55.97;35.60;;;;;;;;;;5041167;28;20036;-69
2021/06/09 06:33:08;;;;;;;62.83;37.07;;;;;;;;;;5050787;28;20032;-66
2021/06/09 06:35:34;;;;;;;59.28;39.53;;;;;;;;;;5030949;28;20260;-66
2021/06/09 06:37:59;;;;;;;60.25;38.50;;;;;;;;;;5030482;28;20022;-68
2021/06/09 06:40:27;;;;;;;63.20;41.28;;;;;;;;;;5031544;28;20494;-65
2021/06/09 06:42:53;;;;;;;66.80;45.63;;;;;;;;;;5048318;28;20090;-64
2021/06/09 06:45:20;;;;;;;66.80;43.60;;;;;;;;;;5049150;28;20471;-68
2021/06/09 06:47:45;;;;;;;65.07;42.22;;;;;;;;;;5049679;28;20083;-66
2021/06/09 06:50:12;;;;;;;62.53;41.45;;;;;;;;;;5049804;28;20047;-66
2021/06/09 06:52:37;;;;;;;63.83;38.78;;;;;;;;;;5049026;28;20013;-66
2021/06/09 06:55:04;;;;;;;62.30;39.80;;;;;;;;;;5049505;28;20487;-65
2021/06/09 06:57:30;;;;;;;54.60;36.67;;;;;;;;;;5048146;28;20360;-65
2021/06/09 06:59:58;;;;;;;55.00;37.25;;;;;;;;;;5046249;28;20028;-65
2021/06/09 07:02:23;;;;;;;51.85;35.53;;;;;;;;;;5050091;28;20031;-64
2021/06/09 07:04:48;;;;;;;47.63;35.25;;;;;;;;;;5045607;28;20013;-65
2021/06/09 07:07:14;;;;;;;50.20;32.73;;;;;;;;;;5036733;28;20063;-67
2021/06/09 07:09:39;;;;;;;49.85;32.20;;;;;;;;;;5048722;28;20275;-65
2021/06/09 07:12:05;;;;;;;53.50;32.20;;;;;;;;;;5047587;28;20068;-67
2021/06/09 07:14:31;;;;;;;52.78;31.02;;;;;;;;;;5050087;28;20017;-64
2021/06/09 07:16:56;;;;;;;43.20;31.10;;;;;;;;;;5049780;28;20032;-69
2021/06/09 07:19:22;;;;;;;54.90;32.35;;;;;;;;;;5050400;28;20108;-64
2021/06/09 07:21:47;;;;;;;41.45;29.42;;;;;;;;;;5031022;28;20088;-66
2021/06/09 07:24:12;;;;;;;45.85;31.63;;;;;;;;;;5044251;28;20104;-64
2021/06/09 07:26:43;;;;;;;43.22;31.63;;;;;;;;;;5049900;28;20379;-64
2021/06/09 07:29:09;;;;;;;42.30;29.45;;;;;;;;;;5048490;28;20642;-64
2021/06/09 07:31:35;;;;;;;57.97;31.52;;;;;;;;;;5037596;28;20029;-66
2021/06/09 07:34:02;;;;;;;48.20;31.20;;;;;;;;;;5029778;28;20025;-64
2021/06/09 07:36:30;;;;;;;49.92;32.42;;;;;;;;;;5030595;28;20021;-66
2021/06/09 07:38:58;;;;;;;42.60;28.30;;;;;;;;;;5049402;28;20108;-64
2021/06/09 07:41:28;;;;;;;46.55;30.50;;;;;;;;;;5046649;28;20033;-67
2021/06/09 07:43:56;;;;;;;50.90;30.52;;;;;;;;;;5049636;28;20032;-67
2021/06/09 07:46:26;;;;;;;52.50;31.20;;;;;;;;;;5049311;28;20094;-69
2021/06/09 07:48:52;;;;;;;42.35;28.40;;;;;;;;;;5049352;28;20025;-65
2021/06/09 07:51:17;;;;;;;45.53;29.30;;;;;;;;;;5049854;28;20670;-65
2021/06/09 07:53:43;;;;;;;44.97;28.90;;;;;;;;;;5031532;28;20475;-64
2021/06/09 07:56:12;;;;;;;41.72;28.95;;;;;;;;;;5048097;28;20020;-67
2021/06/09 07:58:40;;;;;;;38.60;26.13;;;;;;;;;;5049139;28;20013;-65
2021/06/09 08:01:05;;;;;;;42.85;27.73;;;;;;;;;;5047356;28;20036;-65
2021/06/09 08:03:31;;;;;;;40.25;28.77;;;;;;;;;;5048863;28;20165;-67
2021/06/09 08:05:57;;;;;;;44.03;29.98;;;;;;;;;;5048807;28;20031;-68
2021/06/09 08:08:23;;;;;;;48.53;29.98;;;;;;;;;;5051318;28;20391;-67
2021/06/09 08:10:49;;;;;;;49.22;31.08;;;;;;;;;;5048076;28;20020;-65
2021/06/09 08:13:14;;;;;;;47.03;30.70;;;;;;;;;;5044277;28;20079;-64
2021/06/09 08:15:40;;;;;;;44.55;29.63;;;;;;;;;;5052469;28;20394;-67
2021/06/09 08:18:06;;;;;;;46.75;30.90;;;;;;;;;;5053018;28;20024;-65
2021/06/09 08:20:31;;;;;;;55.25;32.63;;;;;;;;;;5052697;28;20059;-67
2021/06/09 08:22:57;;;;;;;47.80;30.33;;;;;;;;;;5049760;28;20437;-64
2021/06/09 08:25:24;;;;;;;41.38;30.45;;;;;;;;;;5052580;28;20037;-64
2021/06/09 08:27:50;;;;;;;44.70;29.35;;;;;;;;;;5051187;28;20052;-65
2021/06/09 08:30:15;;;;;;;42.72;26.45;;;;;;;;;;5050700;28;20033;-67
2021/06/09 08:32:41;;;;;;;35.92;24.92;;;;;;;;;;5052424;28;20017;-67
2021/06/09 08:35:06;;;;;;;41.00;26.73;;;;;;;;;;5052359;28;20037;-64
2021/06/09 08:37:32;;;;;;;36.95;26.60;;;;;;;;;;5052331;28;20017;-68
2021/06/09 08:39:57;;;;;;;38.43;26.03;;;;;;;;;;5051948;28;20348;-64
2021/06/09 08:42:24;;;;;;;37.20;26.90;;;;;;;;;;5052526;28;20286;-65
2021/06/09 08:44:50;;;;;;;44.97;27.75;;;;;;;;;;5049382;28;20024;-69
2021/06/09 08:47:16;;;;;;;45.38;29.65;;;;;;;;;;5058077;23;20041;-87
2021/06/09 08:49:41;;;;;;;38.42;26.52;;;;;;;;;;5035607;28;20108;-88
2021/06/09 08:52:09;;;;;;;41.30;27.13;;;;;;;;;;5034124;28;20120;-87
2021/06/09 08:54:35;;;;;;;44.92;24.13;;;;;;;;;;5033813;28;20032;-87
2021/06/09 08:57:00;;;;;;;33.28;23.80;;;;;;;;;;5032450;28;20024;-87
2021/06/09 08:59:25;;;;;;;33.00;24.00;;;;;;;;;;5034825;28;20112;-87
2021/06/09 09:01:51;;;;;;;35.20;22.65;;;;;;;;;;5034042;28;20047;-87
2021/06/09 09:04:16;;;;;;;32.25;23.50;;;;;;;;;;5033213;28;20107;-88
2021/06/09 09:06:41;;;;;;;33.50;25.83;;;;;;;;;;5034439;28;20048;-87
2021/06/09 09:09:06;;;;;;;30.80;21.83;;;;;;;;;;5034047;28;20082;-88
2021/06/09 09:11:32;;;;;;;33.90;24.63;;;;;;;;;;5031830;28;20084;-86
2021/06/09 09:13:57;;;;;;;36.58;25.38;;;;;;;;;;5050563;28;20422;-87
2021/06/09 09:16:22;;;;;;;36.73;23.50;;;;;;;;;;5037494;28;20021;-86
2021/06/09 09:19:02;;;;;;;32.95;22.60;;;;;;;;;;5053846;28;20100;-87
2021/06/09 09:21:38;;;;;;;32.03;21.50;;;;;;;;;;5033183;28;20056;-88
2021/06/09 09:24:06;;;;;;;27.88;19.48;;;;;;;;;;5032919;28;20466;-88
2021/06/09 09:26:34;;;;;;;29.92;20.92;;;;;;;;;;5050433;28;20016;-87
2021/06/09 09:29:12;;;;;;;29.90;20.83;;;;;;;;;;5032580;28;20112;-88
2021/06/09 09:32:03;;;;;;;35.97;19.85;;;;;;;;;;5032310;28;20613;-87
2021/06/09 09:34:28;;;;;;;29.95;22.45;;;;;;;;;;5034803;28;20052;-86
2021/06/09 09:37:08;;;;;;;29.37;22.23;;;;;;;;;;5035526;28;20029;-87
2021/06/09 09:39:35;;;;;;;37.53;21.43;;;;;;;;;;5023968;28;20021;-87
2021/06/09 09:42:39;;;;;;;26.48;19.92;;;;;;;;;;5037118;28;20264;-87
2021/06/09 09:45:16;;;;;;;29.25;19.60;;;;;;;;;;5015130;28;20021;-87
2021/06/09 09:47:42;;;;;;;25.23;18.75;;;;;;;;;;5003055;28;20031;-87
2021/06/09 09:50:07;;;;;;;28.13;17.75;;;;;;;;;;5017403;28;20120;-87
2021/06/09 09:52:46;;;;;;;18.55;11.98;;;;;;;;;;5049736;28;20021;-87
2021/06/09 09:55:11;;;;;;;21.17;14.05;;;;;;;;;;5032171;28;20586;-87
2021/06/09 09:57:38;;;;;;;19.57;12.10;;;;;;;;;;5049696;28;20100;-88
2021/06/09 10:00:06;;;;;;;19.52;13.48;;;;;;;;;;5049448;28;20268;-87
2021/06/09 10:02:31;;;;;;;22.30;16.20;;;;;;;;;;5050830;28;20017;-87
2021/06/09 10:05:10;;;;;;;22.65;15.77;;;;;;;;;;5032051;28;20375;-86
2021/06/09 10:07:37;;;;;;;20.13;16.33;;;;;;;;;;5028284;28;20025;-87
2021/06/09 10:10:03;;;;;;;21.45;14.27;;;;;;;;;;5023835;28;20021;-87
2021/06/09 10:12:28;;;;;;;26.75;15.02;;;;;;;;;;5046383;28;20024;-88
2021/06/09 10:14:54;;;;;;;31.13;20.08;;;;;;;;;;5044052;28;20026;-86
2021/06/09 10:17:23;;;;;;;26.98;18.40;;;;;;;;;;5031135;28;20029;-88
2021/06/09 10:19:53;;;;;;;24.00;18.83;;;;;;;;;;5016620;28;20025;-87
2021/06/09 10:22:23;;;;;;;27.88;17.23;;;;;;;;;;5029033;28;20017;-87
2021/06/09 10:24:52;;;;;;;22.58;16.63;;;;;;;;;;5012724;28;20026;-87
2021/06/09 10:27:19;;;;;;;20.75;15.95;;;;;;;;;;5035171;28;20029;-87
2021/06/09 10:29:45;;;;;;;27.50;16.75;;;;;;;;;;5054598;28;20405;-87
2021/06/09 10:32:11;;;;;;;18.90;15.63;;;;;;;;;;5032310;28;20020;-88
2021/06/09 10:34:37;;;;;;;22.60;16.83;;;;;;;;;;5030781;28;20506;-87
2021/06/09 10:37:04;;;;;;;24.48;17.90;;;;;;;;;;5030925;28;20048;-87
2021/06/09 10:39:30;;;;;;;20.38;18.10;;;;;;;;;;5031113;28;20083;-87
2021/06/09 10:41:56;;;;;;;20.63;16.52;;;;;;;;;;5031144;28;20063;-85
2021/06/09 10:44:23;;;;;;;19.95;16.60;;;;;;;;;;5048920;28;20040;-86
2021/06/09 10:46:49;;;;;;;31.15;16.88;;;;;;;;;;5030300;28;20104;-87
2021/06/09 10:49:18;;;;;;;25.55;18.33;;;;;;;;;;5030882;28;20029;-86
2021/06/09 10:51:44;;;;;;;32.78;18.92;;;;;;;;;;5048007;28;20024;-86
2021/06/09 10:54:12;;;;;;;24.73;17.77;;;;;;;;;;5040752;28;20029;-88
2021/06/09 10:56:38;;;;;;;20.15;15.82;;;;;;;;;;5012428;28;20726;-87
2021/06/09 10:59:03;;;;;;;29.98;18.73;;;;;;;;;;5049556;28;20052;-87
2021/06/09 11:01:30;;;;;;;24.98;18.90;;;;;;;;;;5032021;28;20437;-86
2021/06/09 11:03:57;;;;;;;25.08;17.50;;;;;;;;;;5031494;28;20108;-86
2021/06/09 11:06:57;;;;;;;23.45;17.65;;;;;;;;;;5047775;28;20025;-86
2021/06/09 11:09:27;;;;;;;23.92;18.58;;;;;;;;;;4970656;28;20033;-87
2021/06/09 11:12:10;;;;;;;26.83;19.77;;;;;;;;;;5030814;28;20075;-87
2021/06/09 11:14:43;;;;;;;26.05;17.65;;;;;;;;;;5049419;28;20032;-87
2021/06/09 11:17:08;;;;;;;29.95;21.38;;;;;;;;;;5028806;28;20040;-87
2021/06/09 11:19:38;;;;;;;28.77;19.17;;;;;;;;;;5040478;28;20014;-88
2021/06/09 11:22:19;;;;;;;28.48;18.95;;;;;;;;;;5031316;28;20263;-87
2021/06/09 11:25:03;;;;;;;33.47;19.00;;;;;;;;;;5030874;28;20017;-87
2021/06/09 11:27:29;;;;;;;25.05;20.35;;;;;;;;;;5031155;28;20024;-87
2021/06/09 11:29:54;;;;;;;27.70;21.45;;;;;;;;;;5047562;28;20062;-85
2021/06/09 11:32:22;;;;;;;30.35;19.00;;;;;;;;;;5033720;28;20029;-87
2021/06/09 11:34:54;;;;;;;29.27;20.20;;;;;;;;;;5050062;28;20064;-86
2021/06/09 11:37:19;;;;;;;22.38;17.95;;;;;;;;;;5048462;28;20047;-87
2021/06/09 11:39:56;;;;;;;23.17;17.48;;;;;;;;;;5032652;28;20048;-88
2021/06/09 11:42:22;;;;;;;27.23;19.83;;;;;;;;;;5026770;28;20021;-87
2021/06/09 11:44:47;;;;;;;28.83;20.05;;;;;;;;;;5034482;28;20367;-88
2021/06/09 11:47:16;;;;;;;27.30;20.10;;;;;;;;;;5020692;28;20041;-86
2021/06/09 11:49:42;;;;;;;24.63;17.83;;;;;;;;;;5021494;28;20025;-87
2021/06/09 11:52:07;;;;;;;21.60;16.88;;;;;;;;;;5052629;28;20013;-85
2021/06/09 11:54:33;;;;;;;26.30;19.30;;;;;;;;;;5062814;23;20087;-63
2021/06/09 11:57:03;;;;;;;23.63;17.10;;;;;;;;;;5028313;28;20014;-63
2021/06/09 11:59:30;;;;;;;25.85;18.08;;;;;;;;;;5016312;28;20018;-63
2021/06/09 12:01:59;;;;;;;25.42;18.63;;;;;;;;;;5023864;28;20104;-63
2021/06/09 12:04:26;;;;;;;29.48;18.30;;;;;;;;;;5033115;28;20044;-63
2021/06/09 12:06:52;;;;;;;27.20;18.73;;;;;;;;;;5044396;23;20383;-64
2021/06/09 12:09:19;;;;;;;29.40;19.80;;;;;;;;;;5041485;28;20013;-65
2021/06/09 12:11:46;;;;;;;23.00;17.52;;;;;;;;;;5051806;28;20107;-64
2021/06/09 12:14:15;;;;;;;27.95;17.08;;;;;;;;;;5034790;28;20040;-65
2021/06/09 12:16:41;;;;;;;25.27;18.88;;;;;;;;;;5052810;28;20021;-68
2021/06/09 12:19:19;;;;;;;23.63;17.73;;;;;;;;;;5050979;28;20108;-67
2021/06/09 12:21:44;;;;;;;24.02;16.95;;;;;;;;;;5052151;28;20044;-68
2021/06/09 12:24:09;;;;;;;28.50;18.50;;;;;;;;;;5052471;28;20096;-67
2021/06/09 12:26:34;;;;;;;26.00;16.37;;;;;;;;;;5052252;28;20540;-67
2021/06/09 12:29:01;;;;;;;32.27;15.30;;;;;;;;;;5052291;28;20056;-67
2021/06/09 12:31:26;;;;;;;22.75;15.90;;;;;;;;;;5032863;28;20026;-67
2021/06/09 12:33:52;;;;;;;20.60;15.00;;;;;;;;;;5042928;28;20107;-67
2021/06/09 12:36:18;;;;;;;20.60;15.43;;;;;;;;;;5048263;28;20107;-67
2021/06/09 12:38:44;;;;;;;24.20;15.00;;;;;;;;;;5048739;28;20021;-66
2021/06/09 12:41:10;;;;;;;19.15;14.65;;;;;;;;;;5051720;28;20053;-67
2021/06/09 12:43:36;;;;;;;23.30;15.60;;;;;;;;;;5052886;28;20143;-66
2021/06/09 12:46:01;;;;;;;17.75;14.55;;;;;;;;;;5048981;28;20495;-66
2021/06/09 12:48:27;;;;;;;29.00;15.15;;;;;;;;;;5051555;28;20024;-67
2021/06/09 12:50:54;;;;;;;15.52;13.07;;;;;;;;;;5052307;28;20378;-67
2021/06/09 12:53:20;;;;;;;20.83;13.80;;;;;;;;;;5051169;28;20047;-67
2021/06/09 12:55:54;;;;;;;18.48;14.40;;;;;;;;;;5046447;28;20014;-67
2021/06/09 12:58:21;;;;;;;20.77;14.25;;;;;;;;;;5051812;28;20051;-66
2021/06/09 13:00:49;;;;;;;22.40;14.32;;;;;;;;;;5052122;28;20061;-67
2021/06/09 13:03:16;;;;;;;23.95;15.32;;;;;;;;;;5051835;28;20029;-66
2021/06/09 13:05:42;;;;;;;20.42;15.38;;;;;;;;;;5052214;28;20025;-67
2021/06/09 13:08:11;;;;;;;22.77;17.17;;;;;;;;;;5050282;28;20466;-67
2021/06/09 13:10:37;;;;;;;23.92;17.85;;;;;;;;;;5051297;28;20534;-67
2021/06/09 13:13:04;;;;;;;22.85;16.83;;;;;;;;;;5051897;28;20143;-66
2021/06/09 13:15:30;;;;;;;23.95;15.75;;;;;;;;;;5051947;28;20119;-67
2021/06/09 13:17:55;;;;;;;20.77;14.97;;;;;;;;;;5051449;28;20125;-67
2021/06/09 13:20:22;;;;;;;23.20;15.73;;;;;;;;;;5051081;28;20334;-65
2021/06/09 13:22:47;;;;;;;18.02;14.68;;;;;;;;;;5051685;28;20108;-65
2021/06/09 13:25:13;;;;;;;20.20;14.65;;;;;;;;;;5050940;28;20151;-66
2021/06/09 13:27:39;;;;;;;18.73;14.30;;;;;;;;;;5051112;28;20398;-67
2021/06/09 13:30:08;;;;;;;17.85;13.27;;;;;;;;;;5051335;28;20021;-68
2021/06/09 13:32:33;;;;;;;21.05;14.02;;;;;;;;;;5050376;28;20017;-68
2021/06/09 13:35:00;;;;;;;17.97;13.17;;;;;;;;;;5050675;28;20024;-68
2021/06/09 13:37:26;;;;;;;18.77;14.98;;;;;;;;;;5040391;28;20291;-68
2021/06/09 13:39:53;;;;;;;19.13;13.45;;;;;;;;;;5043346;28;20343;-68
2021/06/09 13:42:36;;;;;;;15.15;12.20;;;;;;;;;;5049383;28;20029;-68
2021/06/09 13:45:04;;;;;;;16.83;12.20;;;;;;;;;;5051054;28;20024;-67
2021/06/09 13:47:36;;;;;;;17.30;13.18;;;;;;;;;;5050595;28;20020;-69
2021/06/09 13:50:04;;;;;;;14.88;12.52;;;;;;;;;;5051331;28;20036;-68
2021/06/09 13:52:33;;;;;;;15.80;11.88;;;;;;;;;;5051321;28;20159;-68
2021/06/09 13:54:59;;;;;;;18.55;12.52;;;;;;;;;;5051374;28;20025;-66
2021/06/09 13:57:29;;;;;;;24.02;13.50;;;;;;;;;;5048506;28;20033;-68
2021/06/09 13:59:54;;;;;;;20.90;14.38;;;;;;;;;;5045069;28;20413;-68
2021/06/09 14:02:24;;;;;;;25.23;13.98;;;;;;;;;;5050537;28;20039;-68
2021/06/09 14:04:49;;;;;;;;;;;;;;;;;;5051292;28;20078;-67
2021/06/09 14:07:18;;;;;;;19.73;15.93;;;;;;;;;;5035769;28;19917;-68
2021/06/09 14:10:01;;;;;;;25.77;16.50;;;;;;;;;;5049946;28;20024;-68
2021/06/09 14:12:33;;;;;;;20.63;15.20;;;;;;;;;;5040026;28;20099;-68
2021/06/09 14:15:05;;;;;;;22.20;16.25;;;;;;;;;;5037700;28;20029;-68
2021/06/09 14:17:30;;;;;;;18.38;15.32;;;;;;;;;;5048767;28;20360;-65
2021/06/09 14:19:55;;;;;;;18.03;14.63;;;;;;;;;;5044866;28;20032;-67
2021/06/09 14:22:23;;;;;;;17.60;14.73;;;;;;;;;;5050555;28;20111;-65
2021/06/09 14:24:48;;;;;;;20.77;13.52;;;;;;;;;;5049884;28;20108;-68
2021/06/09 14:27:13;;;;;;;18.80;13.02;;;;;;;;;;5049775;28;20494;-65
2021/06/09 14:29:38;;;;;;;17.20;13.75;;;;;;;;;;5045097;28;20021;-68
2021/06/09 14:32:09;;;;;;;20.77;13.73;;;;;;;;;;5050767;28;20120;-68
2021/06/09 14:34:38;;;;;;;17.35;14.20;;;;;;;;;;5045204;28;20029;-66
2021/06/09 14:37:13;;;;;;;18.23;13.23;;;;;;;;;;5037647;28;20017;-66
2021/06/09 14:39:38;;;;;;;21.75;13.90;;;;;;;;;;5047712;28;20017;-66
2021/06/09 14:42:04;;;;;;;18.43;12.50;;;;;;;;;;5050481;28;20490;-68
2021/06/09 14:44:37;;;;;;;17.55;13.13;;;;;;;;;;5049857;28;20017;-66
2021/06/09 14:50:12;;;;;;;;;;;;;;;;;;5025355;28;20036;-69
2021/06/09 14:52:39;;;;;;;19.65;11.07;;;;;;;;;;5049839;28;20007;-66
2021/06/09 14:55:05;;;;;;;14.38;11.27;;;;;;;;;;5048247;28;20104;-69
2021/06/09 14:57:30;;;;;;;13.70;11.93;;;;;;;;;;5041269;28;20542;-66
2021/06/09 14:59:58;;;;;;;17.13;11.75;;;;;;;;;;5044888;28;20037;-66